createdAt,value
2019-03-25T00:02:50.199Z,11.49
2019-03-25T00:06:54.983Z,11.48
2019-03-25T00:10:59.989Z,11.48
2019-03-25T00:15:04.862Z,11.46
2019-03-25T00:19:09.583Z,11.47
2019-03-25T00:23:14.370Z,11.47
2019-03-25T00:27:19.242Z,11.50
2019-03-25T00:31:23.966Z,11.51
2019-03-25T00:35:28.726Z,11.53
2019-03-25T00:39:33.495Z,11.55
2019-03-25T00:43:38.270Z,11.54
2019-03-25T00:47:43.041Z,11.52
2019-03-25T00:51:47.903Z,11.52
2019-03-25T00:55:52.776Z,11.55
2019-03-25T00:59:57.555Z,11.57
2019-03-25T01:04:02.541Z,11.56
2019-03-25T01:08:07.277Z,11.52
2019-03-25T01:12:12.501Z,11.47
2019-03-25T01:16:17.271Z,11.40
2019-03-25T01:20:22.113Z,11.38
2019-03-25T01:24:26.998Z,11.34
2019-03-25T01:28:31.768Z,11.30
2019-03-25T01:32:36.554Z,11.29
2019-03-25T01:36:41.312Z,11.28
2019-03-25T01:40:46.186Z,11.27
2019-03-25T01:44:51.114Z,11.30
2019-03-25T01:48:56.090Z,11.34
2019-03-25T01:53:00.827Z,11.38
2019-03-25T01:57:05.772Z,11.44
2019-03-25T02:01:10.734Z,11.50
2019-03-25T02:05:15.622Z,11.51
2019-03-25T02:09:20.450Z,11.53
2019-03-25T02:13:25.338Z,11.54
2019-03-25T02:17:30.192Z,11.56
2019-03-25T02:21:34.984Z,11.53
2019-03-25T02:25:39.761Z,11.51
2019-03-25T02:29:44.586Z,11.49
2019-03-25T02:33:49.472Z,11.44
2019-03-25T02:37:54.553Z,11.41
2019-03-25T02:41:59.366Z,11.34
2019-03-25T02:46:04.208Z,11.20
2019-03-25T02:50:09.118Z,11.20
2019-03-25T02:54:14.017Z,11.16
2019-03-25T02:58:18.802Z,11.19
2019-03-25T03:02:23.653Z,11.19
2019-03-25T03:06:28.414Z,11.14
2019-03-25T03:10:33.596Z,11.10
2019-03-25T03:14:38.356Z,11.06
2019-03-25T03:18:43.200Z,11.05
2019-03-25T03:22:47.990Z,11.04
2019-03-25T03:26:52.798Z,11.00
2019-03-25T03:30:57.584Z,10.98
2019-03-25T03:35:03.164Z,10.95
2019-03-25T03:39:08.479Z,10.93
2019-03-25T03:43:13.256Z,10.90
2019-03-25T03:47:18.245Z,10.87
2019-03-25T03:51:23.032Z,10.83
2019-03-25T03:55:29.874Z,10.82
2019-03-25T03:59:34.970Z,10.82
2019-03-25T04:03:39.874Z,10.81
2019-03-25T04:07:44.655Z,10.83
2019-03-25T04:11:49.466Z,10.77
2019-03-25T04:15:54.578Z,10.74
2019-03-25T04:19:59.527Z,10.74
2019-03-25T04:24:04.320Z,10.72
2019-03-25T04:28:10.074Z,10.74
2019-03-25T04:32:14.854Z,10.74
2019-03-25T04:36:19.838Z,10.68
2019-03-25T04:40:24.614Z,10.66
2019-03-25T04:44:29.390Z,10.65
2019-03-25T04:48:34.223Z,10.62
2019-03-25T04:52:39.082Z,10.57
2019-03-25T04:56:44.262Z,10.48
2019-03-25T05:00:49.067Z,10.40
2019-03-25T05:04:53.766Z,10.42
2019-03-25T05:08:58.652Z,10.44
2019-03-25T05:13:03.428Z,10.38
2019-03-25T05:17:08.223Z,10.34
2019-03-25T05:21:13.297Z,10.32
2019-03-25T05:25:18.234Z,10.27
2019-03-25T05:29:23.000Z,10.25
2019-03-25T05:33:27.917Z,10.24
2019-03-25T05:37:32.732Z,10.21
2019-03-25T05:41:37.499Z,10.13
2019-03-25T05:45:42.418Z,10.03
2019-03-25T05:49:47.166Z,9.98
2019-03-25T05:53:52.081Z,9.95
2019-03-25T05:57:56.895Z,9.88
2019-03-25T06:02:01.715Z,9.83
2019-03-25T06:06:06.705Z,9.80
2019-03-25T06:10:11.698Z,9.73
2019-03-25T06:14:16.451Z,9.73
2019-03-25T06:18:21.266Z,9.67
2019-03-25T06:22:26.065Z,9.62
2019-03-25T06:26:31.074Z,9.59
2019-03-25T06:30:35.856Z,9.59
2019-03-25T06:34:40.755Z,9.58
2019-03-25T06:38:45.696Z,9.57
2019-03-25T06:42:50.594Z,9.57
2019-03-25T06:46:55.437Z,9.58
2019-03-25T06:51:00.746Z,9.62
2019-03-25T06:55:05.638Z,9.64
2019-03-25T06:59:10.640Z,9.65
2019-03-25T07:03:15.725Z,9.65
2019-03-25T07:07:22.741Z,9.66
2019-03-25T07:11:27.958Z,9.67
2019-03-25T07:15:33.681Z,9.68
2019-03-25T07:19:39.082Z,9.72
2019-03-25T07:23:44.251Z,9.76
2019-03-25T07:27:49.814Z,9.80
2019-03-25T07:31:55.676Z,9.89
2019-03-25T07:36:01.828Z,9.93
2019-03-25T07:40:09.419Z,9.93
2019-03-25T07:44:14.944Z,9.97
2019-03-25T07:48:20.193Z,10.01
2019-03-25T07:52:26.019Z,10.06
2019-03-25T07:56:31.652Z,10.14
2019-03-25T08:00:40.151Z,10.17
2019-03-25T08:04:45.825Z,10.11
2019-03-25T08:08:50.897Z,10.10
2019-03-25T08:12:56.760Z,10.09
2019-03-25T08:17:02.082Z,10.11
2019-03-25T08:21:34.432Z,10.15
2019-03-25T08:25:39.958Z,10.18
2019-03-25T08:29:45.270Z,10.23
2019-03-25T08:33:50.397Z,10.23
2019-03-25T08:37:55.856Z,10.25
2019-03-25T08:42:01.558Z,10.27
2019-03-25T08:46:07.238Z,10.32
2019-03-25T08:50:13.339Z,10.35
2019-03-25T08:54:19.417Z,10.38
2019-03-25T08:58:24.914Z,10.42
2019-03-25T09:02:30.299Z,10.45
2019-03-25T09:06:35.557Z,10.50
2019-03-25T09:10:40.925Z,10.54
2019-03-25T09:14:46.495Z,10.57
2019-03-25T09:19:07.552Z,10.62
2019-03-25T09:23:12.851Z,10.65
2019-03-25T09:27:21.673Z,10.65
2019-03-25T09:31:36.949Z,10.66
2019-03-25T09:35:40.327Z,10.66
2019-03-25T09:39:46.241Z,10.68
2019-03-25T09:43:51.607Z,10.70
2019-03-25T09:47:56.579Z,10.70
2019-03-25T09:52:02.290Z,10.70
2019-03-25T09:56:08.171Z,10.71
2019-03-25T10:00:14.198Z,10.71
2019-03-25T10:04:20.219Z,10.70
2019-03-25T10:08:28.468Z,10.71
2019-03-25T10:13:07.929Z,10.76
2019-03-25T10:17:12.928Z,10.87
2019-03-25T10:21:19.596Z,11.06
2019-03-25T10:25:25.005Z,11.36
2019-03-25T10:29:30.295Z,11.36
2019-03-25T10:33:35.811Z,11.56
2019-03-25T10:37:41.524Z,11.75
2019-03-25T10:41:47.734Z,11.88
2019-03-25T10:45:53.305Z,12.09
2019-03-25T10:49:59.493Z,12.09
2019-03-25T10:54:08.230Z,12.27
2019-03-25T10:58:13.244Z,12.44
2019-03-25T11:02:18.464Z,12.65
2019-03-25T11:06:23.269Z,12.75
2019-03-25T11:10:28.021Z,12.85
2019-03-25T11:14:32.948Z,13.05
2019-03-25T11:18:37.966Z,13.30
2019-03-25T11:22:42.969Z,13.51
2019-03-25T11:26:52.977Z,13.70
2019-03-25T11:30:59.770Z,13.85
2019-03-25T11:35:05.693Z,13.90
2019-03-25T11:39:15.481Z,14.15
2019-03-25T11:43:21.013Z,14.13
2019-03-25T11:47:26.171Z,13.34
2019-03-25T11:51:31.001Z,11.87
2019-03-25T11:55:36.120Z,11.87
2019-03-25T11:59:41.363Z,11.41
2019-03-25T12:03:46.412Z,11.11
2019-03-25T12:07:52.386Z,10.98
2019-03-25T12:11:57.789Z,10.95
2019-03-25T12:16:03.051Z,10.97
2019-03-25T12:20:08.657Z,11.06
2019-03-25T12:24:13.932Z,11.25
2019-03-25T12:28:20.703Z,11.38
2019-03-25T12:32:25.977Z,11.48
2019-03-25T12:36:31.967Z,11.57
2019-03-25T12:40:36.903Z,11.64
2019-03-25T12:44:41.677Z,11.92
2019-03-25T12:48:47.658Z,11.92
2019-03-25T12:52:53.602Z,12.39
2019-03-25T12:56:59.269Z,12.39
2019-03-25T13:01:06.064Z,12.58
2019-03-25T13:05:11.460Z,12.70
2019-03-25T13:09:17.047Z,12.79
2019-03-25T13:13:22.962Z,12.88
2019-03-25T13:17:27.743Z,12.92
2019-03-25T13:21:32.648Z,12.90
2019-03-25T13:25:39.523Z,12.72
2019-03-25T13:29:52.450Z,12.36
2019-03-25T13:33:53.458Z,12.36
2019-03-25T13:37:59.470Z,12.33
2019-03-25T13:42:05.003Z,12.31
2019-03-25T13:46:09.910Z,12.31
2019-03-25T13:50:15.000Z,12.25
2019-03-25T13:54:19.752Z,12.31
2019-03-25T13:58:27.570Z,12.23
2019-03-25T14:02:32.319Z,12.12
2019-03-25T14:06:38.060Z,12.08
2019-03-25T14:10:43.370Z,12.08
2019-03-25T14:14:48.342Z,12.09
2019-03-25T14:18:53.359Z,12.13
2019-03-25T14:22:59.099Z,12.17
2019-03-25T14:27:04.326Z,12.18
2019-03-25T14:31:09.365Z,12.21
2019-03-25T14:35:14.520Z,12.18
2019-03-25T14:39:21.002Z,12.10
2019-03-25T14:43:25.854Z,12.13
2019-03-25T14:47:32.870Z,11.95
2019-03-25T14:51:43.094Z,11.95
2019-03-25T14:55:47.953Z,11.94
2019-03-25T14:59:53.027Z,11.20
2019-03-25T15:03:57.880Z,11.20
2019-03-25T15:08:03.109Z,10.97
2019-03-25T15:12:09.851Z,10.80
2019-03-25T15:16:14.852Z,10.65
2019-03-25T15:20:19.702Z,10.58
2019-03-25T15:24:25.083Z,10.53
2019-03-25T15:28:30.245Z,10.46
2019-03-25T15:32:34.954Z,10.35
2019-03-25T15:36:40.454Z,10.21
2019-03-25T15:40:48.082Z,10.22
2019-03-25T15:44:54.022Z,10.15
2019-03-25T15:49:01.642Z,10.10
2019-03-25T15:53:06.546Z,10.07
2019-03-25T15:57:13.142Z,10.05
2019-03-25T16:01:18.010Z,9.98
2019-03-25T16:05:22.830Z,9.98
2019-03-25T16:09:28.596Z,9.92
2019-03-25T16:13:33.561Z,9.86
2019-03-25T16:17:38.352Z,9.86
2019-03-25T16:21:46.069Z,9.87
2019-03-25T16:25:53.435Z,9.83
2019-03-25T16:29:58.206Z,9.77
2019-03-25T16:34:07.228Z,9.69
2019-03-25T16:38:12.222Z,9.66
2019-03-25T16:42:16.970Z,9.64
2019-03-25T16:46:22.534Z,9.58
2019-03-25T16:50:27.315Z,9.54
2019-03-25T16:54:32.505Z,9.49
2019-03-25T16:58:38.200Z,9.39
2019-03-25T17:02:46.519Z,9.33
2019-03-25T17:06:53.041Z,9.29
2019-03-25T17:11:00.607Z,9.24
2019-03-25T17:15:05.709Z,9.18
2019-03-25T17:19:12.097Z,9.08
2019-03-25T17:23:17.205Z,9.01
2019-03-25T17:27:21.944Z,8.96
2019-03-25T17:31:26.880Z,8.88
2019-03-25T17:35:33.009Z,8.79
2019-03-25T17:39:40.048Z,8.74
2019-03-25T17:43:44.997Z,8.69
2019-03-25T17:47:51.258Z,8.69
2019-03-25T17:51:56.239Z,8.65
2019-03-25T17:56:05.363Z,8.64
2019-03-25T18:00:11.786Z,8.67
2019-03-25T18:04:16.716Z,8.64
2019-03-25T18:08:23.583Z,8.59
2019-03-25T18:12:38.462Z,8.59
2019-03-25T18:16:35.844Z,8.54
2019-03-25T18:20:40.605Z,8.52
2019-03-25T18:24:46.308Z,8.56
2019-03-25T18:28:53.006Z,8.59
2019-03-25T18:32:58.031Z,8.57
2019-03-25T18:37:03.245Z,8.54
2019-03-25T18:41:08.219Z,8.54
2019-03-25T18:45:14.162Z,8.52
2019-03-25T18:49:19.192Z,8.53
2019-03-25T18:53:24.166Z,8.52
2019-03-25T18:57:30.990Z,8.52
2019-03-25T19:01:37.285Z,8.56
2019-03-25T19:05:45.145Z,8.53
2019-03-25T19:09:51.550Z,8.51
2019-03-25T19:13:57.546Z,8.52
2019-03-25T19:18:02.596Z,8.49
2019-03-25T19:22:07.980Z,8.44
2019-03-25T19:26:13.469Z,8.41
2019-03-25T19:30:18.823Z,8.39
2019-03-25T19:34:23.549Z,8.37
2019-03-25T19:38:29.187Z,8.39
2019-03-25T19:42:35.731Z,8.37
2019-03-25T19:46:42.660Z,8.36
2019-03-25T19:50:50.700Z,8.35
2019-03-25T19:54:57.442Z,8.33
2019-03-25T19:59:02.142Z,8.36
2019-03-25T20:03:08.163Z,8.36
2019-03-25T20:07:13.026Z,8.33
2019-03-25T20:11:17.785Z,8.34
2019-03-25T20:15:22.673Z,8.34
2019-03-25T20:19:27.464Z,8.37
2019-03-25T20:23:32.449Z,8.37
2019-03-25T20:27:37.300Z,8.36
2019-03-25T20:31:42.364Z,8.39
2019-03-25T20:35:47.060Z,8.39
2019-03-25T20:39:51.851Z,8.33
2019-03-25T20:43:56.976Z,8.29
2019-03-25T20:48:01.799Z,8.25
2019-03-25T20:52:06.489Z,8.15
2019-03-25T20:56:11.292Z,8.13
2019-03-25T21:00:18.364Z,8.09
2019-03-25T21:04:23.210Z,8.06
2019-03-25T21:08:28.187Z,7.98
2019-03-25T21:12:32.907Z,7.95
2019-03-25T21:16:37.781Z,7.98
2019-03-25T21:20:42.746Z,8.04
2019-03-25T21:24:47.490Z,8.02
2019-03-25T21:28:52.506Z,8.02
2019-03-25T21:32:58.721Z,8.06
2019-03-25T21:37:05.672Z,8.04
2019-03-25T21:41:10.267Z,7.99
2019-03-25T21:45:15.280Z,7.97
2019-03-25T21:49:19.985Z,7.91
2019-03-25T21:53:24.972Z,7.90
2019-03-25T21:57:30.022Z,7.86
2019-03-25T22:01:34.805Z,7.84
2019-03-25T22:05:40.691Z,7.84
2019-03-25T22:09:45.705Z,7.80
2019-03-25T22:13:50.429Z,7.77
2019-03-25T22:17:55.185Z,7.77
2019-03-25T22:22:01.059Z,7.77
2019-03-25T22:26:05.802Z,7.76
2019-03-25T22:30:12.338Z,7.76
2019-03-25T22:34:17.093Z,7.72
2019-03-25T22:38:21.841Z,7.71
2019-03-25T22:42:26.719Z,7.68
2019-03-25T22:46:31.468Z,7.62
2019-03-25T22:50:36.228Z,7.57
2019-03-25T22:54:40.953Z,7.51
2019-03-25T22:58:46.020Z,7.50
2019-03-25T23:02:50.791Z,7.49
2019-03-25T23:06:55.598Z,7.45
2019-03-25T23:11:00.341Z,7.44
2019-03-25T23:15:05.714Z,7.44
2019-03-25T23:19:10.499Z,7.38
2019-03-25T23:23:15.261Z,7.36
2019-03-25T23:27:20.011Z,7.34
2019-03-25T23:31:24.757Z,7.33
2019-03-25T23:35:29.462Z,7.31
2019-03-25T23:39:34.206Z,7.29
2019-03-25T23:43:39.344Z,7.29
2019-03-25T23:47:44.084Z,7.28
2019-03-25T23:51:49.067Z,7.29
2019-03-25T23:55:53.831Z,7.30
2019-03-25T23:59:58.595Z,7.28
